sensor_id;sensor_type;location;lat;lon;timestamp;P1;durP1;ratioP1;P2;durP2;ratioP2
1178;SDS011;578;48.408;10.004;2024-02-26T00:01:04;6.93;;;6.30;;
1178;SDS011;578;48.408;10.004;2024-02-26T00:03:06;7.03;;;6.22;;
1178;SDS011;578;48.408;10.004;2024-02-26T00:05:07;7.85;;;6.22;;
1178;SDS011;578;48.408;10.004;2024-02-26T00:07:11;8.15;;;6.90;;
1178;SDS011;578;48.408;10.004;2024-02-26T00:09:11;6.93;;;6.30;;
1178;SDS011;578;48.408;10.004;2024-02-26T00:11:13;6.25;;;5.72;;
1178;SDS011;578;48.408;10.004;2024-02-26T00:13:14;6.67;;;6.03;;
1178;SDS011;578;48.408;10.004;2024-02-26T00:15:16;6.50;;;5.80;;
1178;SDS011;578;48.408;10.004;2024-02-26T00:17:17;6.53;;;5.85;;
1178;SDS011;578;48.408;10.004;2024-02-26T00:19:18;6.57;;;5.93;;
1178;SDS011;578;48.408;10.004;2024-02-26T00:21:20;7.82;;;6.60;;
1178;SDS011;578;48.408;10.004;2024-02-26T00:23:23;7.68;;;6.63;;
1178;SDS011;578;48.408;10.004;2024-02-26T00:25:25;8.05;;;6.45;;
1178;SDS011;578;48.408;10.004;2024-02-26T00:27:27;6.88;;;6.28;;
1178;SDS011;578;48.408;10.004;2024-02-26T00:29:28;7.22;;;6.53;;
1178;SDS011;578;48.408;10.004;2024-02-26T00:31:30;7.07;;;6.47;;
1178;SDS011;578;48.408;10.004;2024-02-26T00:33:32;8.82;;;6.50;;
1178;SDS011;578;48.408;10.004;2024-02-26T00:35:33;8.85;;;7.88;;
1178;SDS011;578;48.408;10.004;2024-02-26T00:37:35;7.90;;;7.10;;
1178;SDS011;578;48.408;10.004;2024-02-26T00:39:38;7.80;;;7.10;;
1178;SDS011;578;48.408;10.004;2024-02-26T00:41:40;8.52;;;7.20;;
1178;SDS011;578;48.408;10.004;2024-02-26T00:43:42;7.85;;;7.15;;
1178;SDS011;578;48.408;10.004;2024-02-26T00:45:44;9.10;;;7.80;;
1178;SDS011;578;48.408;10.004;2024-02-26T00:47:46;7.78;;;7.03;;
1178;SDS011;578;48.408;10.004;2024-02-26T00:49:49;7.28;;;6.63;;
1178;SDS011;578;48.408;10.004;2024-02-26T00:51:50;7.72;;;6.93;;
1178;SDS011;578;48.408;10.004;2024-02-26T00:53:52;7.93;;;7.22;;
1178;SDS011;578;48.408;10.004;2024-02-26T00:55:55;8.45;;;7.75;;
1178;SDS011;578;48.408;10.004;2024-02-26T00:57:58;7.35;;;6.65;;
1178;SDS011;578;48.408;10.004;2024-02-26T01:00:00;7.78;;;7.07;;
1178;SDS011;578;48.408;10.004;2024-02-26T01:02:02;8.00;;;7.25;;
1178;SDS011;578;48.408;10.004;2024-02-26T01:04:06;8.73;;;7.90;;
1178;SDS011;578;48.408;10.004;2024-02-26T01:06:08;9.38;;;8.38;;
1178;SDS011;578;48.408;10.004;2024-02-26T01:08:10;9.48;;;8.48;;
1178;SDS011;578;48.408;10.004;2024-02-26T01:10:12;7.88;;;7.07;;
1178;SDS011;578;48.408;10.004;2024-02-26T01:12:15;8.20;;;7.40;;
1178;SDS011;578;48.408;10.004;2024-02-26T01:14:17;9.15;;;8.13;;
1178;SDS011;578;48.408;10.004;2024-02-26T01:16:19;8.88;;;7.97;;
1178;SDS011;578;48.408;10.004;2024-02-26T01:18:21;8.40;;;7.60;;
1178;SDS011;578;48.408;10.004;2024-02-26T01:20:22;7.88;;;7.00;;
1178;SDS011;578;48.408;10.004;2024-02-26T01:22:24;8.65;;;7.75;;
1178;SDS011;578;48.408;10.004;2024-02-26T01:24:24;7.67;;;6.97;;
1178;SDS011;578;48.408;10.004;2024-02-26T01:26:26;8.15;;;7.45;;
1178;SDS011;578;48.408;10.004;2024-02-26T01:28:29;8.75;;;7.40;;
1178;SDS011;578;48.408;10.004;2024-02-26T01:30:31;8.15;;;7.35;;
1178;SDS011;578;48.408;10.004;2024-02-26T01:32:33;7.70;;;6.90;;
1178;SDS011;578;48.408;10.004;2024-02-26T01:34:36;7.95;;;7.15;;
1178;SDS011;578;48.408;10.004;2024-02-26T01:36:38;9.40;;;8.07;;
1178;SDS011;578;48.408;10.004;2024-02-26T01:38:38;7.80;;;7.00;;
1178;SDS011;578;48.408;10.004;2024-02-26T01:40:40;8.73;;;7.82;;
1178;SDS011;578;48.408;10.004;2024-02-26T01:42:42;7.65;;;6.93;;
1178;SDS011;578;48.408;10.004;2024-02-26T01:44:45;9.18;;;7.82;;
1178;SDS011;578;48.408;10.004;2024-02-26T01:46:47;8.10;;;7.30;;
1178;SDS011;578;48.408;10.004;2024-02-26T01:48:49;9.07;;;8.18;;
1178;SDS011;578;48.408;10.004;2024-02-26T01:50:51;8.80;;;8.00;;
1178;SDS011;578;48.408;10.004;2024-02-26T01:52:53;11.73;;;7.15;;
1178;SDS011;578;48.408;10.004;2024-02-26T01:54:56;9.35;;;8.15;;
1178;SDS011;578;48.408;10.004;2024-02-26T01:56:57;10.53;;;8.50;;
1178;SDS011;578;48.408;10.004;2024-02-26T01:58:59;10.02;;;9.05;;
1178;SDS011;578;48.408;10.004;2024-02-26T02:01:02;9.82;;;9.00;;
1178;SDS011;578;48.408;10.004;2024-02-26T02:03:04;13.23;;;9.93;;
1178;SDS011;578;48.408;10.004;2024-02-26T02:05:07;9.10;;;8.30;;
1178;SDS011;578;48.408;10.004;2024-02-26T02:07:09;9.40;;;8.50;;
1178;SDS011;578;48.408;10.004;2024-02-26T02:09:11;10.30;;;9.20;;
1178;SDS011;578;48.408;10.004;2024-02-26T02:11:13;9.82;;;8.10;;
1178;SDS011;578;48.408;10.004;2024-02-26T02:13:15;11.52;;;8.75;;
1178;SDS011;578;48.408;10.004;2024-02-26T02:15:17;10.50;;;8.65;;
1178;SDS011;578;48.408;10.004;2024-02-26T02:17:19;8.67;;;7.87;;
1178;SDS011;578;48.408;10.004;2024-02-26T02:19:21;10.10;;;9.10;;
1178;SDS011;578;48.408;10.004;2024-02-26T02:21:24;9.68;;;8.68;;
1178;SDS011;578;48.408;10.004;2024-02-26T02:23:25;8.95;;;8.10;;
1178;SDS011;578;48.408;10.004;2024-02-26T02:25:27;10.70;;;8.10;;
1178;SDS011;578;48.408;10.004;2024-02-26T02:27:29;9.60;;;8.60;;
1178;SDS011;578;48.408;10.004;2024-02-26T02:29:31;12.90;;;9.05;;
1178;SDS011;578;48.408;10.004;2024-02-26T02:31:32;11.20;;;9.10;;
1178;SDS011;578;48.408;10.004;2024-02-26T02:33:34;10.07;;;9.00;;
1178;SDS011;578;48.408;10.004;2024-02-26T02:35:36;10.23;;;9.15;;
1178;SDS011;578;48.408;10.004;2024-02-26T02:37:39;10.18;;;9.07;;
1178;SDS011;578;48.408;10.004;2024-02-26T02:39:41;12.60;;;9.45;;
1178;SDS011;578;48.408;10.004;2024-02-26T02:41:43;11.07;;;9.25;;
1178;SDS011;578;48.408;10.004;2024-02-26T02:43:45;10.07;;;9.13;;
1178;SDS011;578;48.408;10.004;2024-02-26T02:45:47;11.75;;;10.10;;
1178;SDS011;578;48.408;10.004;2024-02-26T02:47:48;12.40;;;10.65;;
1178;SDS011;578;48.408;10.004;2024-02-26T02:49:50;10.23;;;9.15;;
1178;SDS011;578;48.408;10.004;2024-02-26T02:51:52;11.43;;;10.27;;
1178;SDS011;578;48.408;10.004;2024-02-26T02:53:55;10.95;;;9.85;;
1178;SDS011;578;48.408;10.004;2024-02-26T02:55:56;10.82;;;9.75;;
1178;SDS011;578;48.408;10.004;2024-02-26T02:57:58;12.15;;;9.95;;
1178;SDS011;578;48.408;10.004;2024-02-26T03:00:00;10.80;;;9.70;;
1178;SDS011;578;48.408;10.004;2024-02-26T03:02:04;10.00;;;9.07;;
1178;SDS011;578;48.408;10.004;2024-02-26T03:04:06;11.55;;;9.52;;
1178;SDS011;578;48.408;10.004;2024-02-26T03:06:08;9.98;;;8.98;;
1178;SDS011;578;48.408;10.004;2024-02-26T03:08:10;10.63;;;9.52;;
1178;SDS011;578;48.408;10.004;2024-02-26T03:10:12;10.07;;;9.03;;
1178;SDS011;578;48.408;10.004;2024-02-26T03:12:13;10.02;;;9.02;;
1178;SDS011;578;48.408;10.004;2024-02-26T03:14:15;11.57;;;9.90;;
1178;SDS011;578;48.408;10.004;2024-02-26T03:16:17;11.68;;;8.68;;
1178;SDS011;578;48.408;10.004;2024-02-26T03:18:18;12.60;;;9.90;;
1178;SDS011;578;48.408;10.004;2024-02-26T03:20:20;10.02;;;8.95;;
1178;SDS011;578;48.408;10.004;2024-02-26T03:22:22;9.93;;;8.98;;
1178;SDS011;578;48.408;10.004;2024-02-26T03:24:23;10.10;;;9.10;;
1178;SDS011;578;48.408;10.004;2024-02-26T03:26:26;12.88;;;8.57;;
1178;SDS011;578;48.408;10.004;2024-02-26T03:28:27;9.63;;;8.25;;
1178;SDS011;578;48.408;10.004;2024-02-26T03:30:29;10.77;;;9.68;;
1178;SDS011;578;48.408;10.004;2024-02-26T03:32:31;8.20;;;7.45;;
1178;SDS011;578;48.408;10.004;2024-02-26T03:34:33;9.95;;;9.02;;
1178;SDS011;578;48.408;10.004;2024-02-26T03:36:34;10.30;;;9.20;;
1178;SDS011;578;48.408;10.004;2024-02-26T03:38:37;9.70;;;8.80;;
1178;SDS011;578;48.408;10.004;2024-02-26T03:40:39;10.52;;;9.38;;
1178;SDS011;578;48.408;10.004;2024-02-26T03:42:41;10.67;;;9.57;;
1178;SDS011;578;48.408;10.004;2024-02-26T03:44:43;9.68;;;8.73;;
1178;SDS011;578;48.408;10.004;2024-02-26T03:46:44;10.57;;;9.48;;
1178;SDS011;578;48.408;10.004;2024-02-26T03:48:47;9.43;;;8.52;;
1178;SDS011;578;48.408;10.004;2024-02-26T03:50:48;11.70;;;10.50;;
1178;SDS011;578;48.408;10.004;2024-02-26T03:52:50;10.60;;;9.50;;
1178;SDS011;578;48.408;10.004;2024-02-26T03:54:52;10.73;;;9.73;;
1178;SDS011;578;48.408;10.004;2024-02-26T03:56:54;10.65;;;9.55;;
1178;SDS011;578;48.408;10.004;2024-02-26T03:58:57;11.43;;;10.10;;
1178;SDS011;578;48.408;10.004;2024-02-26T04:00:59;10.75;;;9.65;;
1178;SDS011;578;48.408;10.004;2024-02-26T04:03:01;11.32;;;10.15;;
1178;SDS011;578;48.408;10.004;2024-02-26T04:05:03;11.80;;;10.70;;
1178;SDS011;578;48.408;10.004;2024-02-26T04:07:05;12.85;;;9.60;;
1178;SDS011;578;48.408;10.004;2024-02-26T04:09:07;10.60;;;9.32;;
1178;SDS011;578;48.408;10.004;2024-02-26T04:11:10;11.73;;;10.43;;
1178;SDS011;578;48.408;10.004;2024-02-26T04:13:12;11.90;;;10.68;;
1178;SDS011;578;48.408;10.004;2024-02-26T04:15:16;12.10;;;10.85;;
1178;SDS011;578;48.408;10.004;2024-02-26T04:17:18;11.70;;;10.60;;
1178;SDS011;578;48.408;10.004;2024-02-26T04:19:19;12.13;;;10.98;;
1178;SDS011;578;48.408;10.004;2024-02-26T04:21:21;11.25;;;10.15;;
1178;SDS011;578;48.408;10.004;2024-02-26T04:23:23;9.60;;;8.70;;
1178;SDS011;578;48.408;10.004;2024-02-26T04:25:25;11.43;;;10.02;;
1178;SDS011;578;48.408;10.004;2024-02-26T04:27:26;11.57;;;10.23;;
1178;SDS011;578;48.408;10.004;2024-02-26T04:29:28;11.35;;;10.15;;
1178;SDS011;578;48.408;10.004;2024-02-26T04:31:31;10.25;;;9.20;;
1178;SDS011;578;48.408;10.004;2024-02-26T04:33:33;11.63;;;10.07;;
1178;SDS011;578;48.408;10.004;2024-02-26T04:35:35;11.48;;;10.38;;
1178;SDS011;578;48.408;10.004;2024-02-26T04:37:37;12.25;;;10.95;;
1178;SDS011;578;48.408;10.004;2024-02-26T04:39:39;12.38;;;10.82;;
1178;SDS011;578;48.408;10.004;2024-02-26T04:41:41;11.13;;;9.93;;
1178;SDS011;578;48.408;10.004;2024-02-26T04:43:42;11.38;;;10.18;;
1178;SDS011;578;48.408;10.004;2024-02-26T04:45:43;13.23;;;10.97;;
1178;SDS011;578;48.408;10.004;2024-02-26T04:47:47;12.02;;;10.77;;
1178;SDS011;578;48.408;10.004;2024-02-26T04:49:47;13.05;;;11.23;;
1178;SDS011;578;48.408;10.004;2024-02-26T04:51:50;12.43;;;11.23;;
1178;SDS011;578;48.408;10.004;2024-02-26T04:53:50;12.13;;;10.63;;
1178;SDS011;578;48.408;10.004;2024-02-26T04:55:53;12.93;;;10.10;;
1178;SDS011;578;48.408;10.004;2024-02-26T04:57:55;12.75;;;11.43;;
1178;SDS011;578;48.408;10.004;2024-02-26T04:59:57;12.48;;;11.27;;
1178;SDS011;578;48.408;10.004;2024-02-26T05:01:59;13.70;;;11.65;;
1178;SDS011;578;48.408;10.004;2024-02-26T05:04:02;16.95;;;11.75;;
1178;SDS011;578;48.408;10.004;2024-02-26T05:06:04;17.52;;;11.85;;
1178;SDS011;578;48.408;10.004;2024-02-26T05:08:06;12.55;;;11.18;;
1178;SDS011;578;48.408;10.004;2024-02-26T05:10:08;12.55;;;11.20;;
1178;SDS011;578;48.408;10.004;2024-02-26T05:12:09;13.30;;;11.88;;
1178;SDS011;578;48.408;10.004;2024-02-26T05:14:11;15.80;;;12.55;;
1178;SDS011;578;48.408;10.004;2024-02-26T05:16:13;15.48;;;11.07;;
1178;SDS011;578;48.408;10.004;2024-02-26T05:18:14;13.73;;;12.33;;
1178;SDS011;578;48.408;10.004;2024-02-26T05:20:17;13.43;;;12.00;;
1178;SDS011;578;48.408;10.004;2024-02-26T05:22:19;14.50;;;12.75;;
1178;SDS011;578;48.408;10.004;2024-02-26T05:24:20;14.60;;;12.98;;
1178;SDS011;578;48.408;10.004;2024-02-26T05:26:22;14.73;;;12.80;;
1178;SDS011;578;48.408;10.004;2024-02-26T05:28:24;15.05;;;13.45;;
1178;SDS011;578;48.408;10.004;2024-02-26T05:30:26;16.02;;;13.13;;
1178;SDS011;578;48.408;10.004;2024-02-26T05:32:28;15.68;;;13.93;;
1178;SDS011;578;48.408;10.004;2024-02-26T05:34:29;15.47;;;13.57;;
1178;SDS011;578;48.408;10.004;2024-02-26T05:36:32;19.35;;;14.77;;
1178;SDS011;578;48.408;10.004;2024-02-26T05:38:33;15.18;;;13.23;;
1178;SDS011;578;48.408;10.004;2024-02-26T05:40:35;19.55;;;14.73;;
1178;SDS011;578;48.408;10.004;2024-02-26T05:42:36;17.45;;;14.40;;
1178;SDS011;578;48.408;10.004;2024-02-26T05:44:38;19.88;;;15.18;;
1178;SDS011;578;48.408;10.004;2024-02-26T05:46:40;17.55;;;14.25;;
1178;SDS011;578;48.408;10.004;2024-02-26T05:48:42;16.25;;;14.05;;
1178;SDS011;578;48.408;10.004;2024-02-26T05:50:43;18.58;;;14.57;;
1178;SDS011;578;48.408;10.004;2024-02-26T05:52:47;16.08;;;14.18;;
1178;SDS011;578;48.408;10.004;2024-02-26T05:54:48;19.17;;;15.73;;
1178;SDS011;578;48.408;10.004;2024-02-26T05:56:50;18.27;;;15.35;;
1178;SDS011;578;48.408;10.004;2024-02-26T05:58:52;16.83;;;13.85;;
1178;SDS011;578;48.408;10.004;2024-02-26T06:00:54;17.17;;;14.85;;
1178;SDS011;578;48.408;10.004;2024-02-26T06:02:56;18.60;;;14.55;;
1178;SDS011;578;48.408;10.004;2024-02-26T06:04:58;19.50;;;15.90;;
1178;SDS011;578;48.408;10.004;2024-02-26T06:06:59;19.30;;;16.10;;
1178;SDS011;578;48.408;10.004;2024-02-26T06:09:02;19.65;;;16.02;;
1178;SDS011;578;48.408;10.004;2024-02-26T06:11:05;22.95;;;16.42;;
1178;SDS011;578;48.408;10.004;2024-02-26T06:13:07;20.80;;;16.30;;
1178;SDS011;578;48.408;10.004;2024-02-26T06:15:09;18.65;;;16.63;;
1178;SDS011;578;48.408;10.004;2024-02-26T06:17:12;20.02;;;16.75;;
1178;SDS011;578;48.408;10.004;2024-02-26T06:19:14;20.38;;;17.90;;
1178;SDS011;578;48.408;10.004;2024-02-26T06:21:15;22.58;;;16.77;;
1178;SDS011;578;48.408;10.004;2024-02-26T06:23:17;20.88;;;17.13;;
1178;SDS011;578;48.408;10.004;2024-02-26T06:25:20;18.10;;;16.17;;
1178;SDS011;578;48.408;10.004;2024-02-26T06:27:22;22.40;;;18.45;;
1178;SDS011;578;48.408;10.004;2024-02-26T06:29:24;21.90;;;17.65;;
1178;SDS011;578;48.408;10.004;2024-02-26T06:31:24;20.83;;;17.40;;
1178;SDS011;578;48.408;10.004;2024-02-26T06:33:27;22.63;;;18.92;;
1178;SDS011;578;48.408;10.004;2024-02-26T06:35:29;20.63;;;16.58;;
1178;SDS011;578;48.408;10.004;2024-02-26T06:37:31;24.70;;;18.65;;
1178;SDS011;578;48.408;10.004;2024-02-26T06:39:33;26.35;;;18.70;;
1178;SDS011;578;48.408;10.004;2024-02-26T06:41:36;24.90;;;18.13;;
1178;SDS011;578;48.408;10.004;2024-02-26T06:43:39;20.70;;;17.85;;
1178;SDS011;578;48.408;10.004;2024-02-26T06:45:41;21.50;;;17.80;;
1178;SDS011;578;48.408;10.004;2024-02-26T06:47:43;26.05;;;18.90;;
1178;SDS011;578;48.408;10.004;2024-02-26T06:49:43;21.27;;;16.97;;
1178;SDS011;578;48.408;10.004;2024-02-26T06:51:45;21.70;;;17.73;;
1178;SDS011;578;48.408;10.004;2024-02-26T06:53:47;20.90;;;17.20;;
1178;SDS011;578;48.408;10.004;2024-02-26T06:55:50;23.38;;;18.05;;
1178;SDS011;578;48.408;10.004;2024-02-26T06:57:53;23.00;;;18.13;;
1178;SDS011;578;48.408;10.004;2024-02-26T06:59:55;24.08;;;18.42;;
1178;SDS011;578;48.408;10.004;2024-02-26T07:01:55;23.80;;;18.60;;
1178;SDS011;578;48.408;10.004;2024-02-26T07:03:57;22.65;;;17.83;;
1178;SDS011;578;48.408;10.004;2024-02-26T07:05:58;19.87;;;16.90;;
1178;SDS011;578;48.408;10.004;2024-02-26T07:08:00;20.55;;;16.38;;
1178;SDS011;578;48.408;10.004;2024-02-26T07:10:01;22.20;;;17.15;;
1178;SDS011;578;48.408;10.004;2024-02-26T07:12:05;19.13;;;16.20;;
1178;SDS011;578;48.408;10.004;2024-02-26T07:14:09;23.33;;;17.15;;
1178;SDS011;578;48.408;10.004;2024-02-26T07:16:11;21.52;;;16.70;;
1178;SDS011;578;48.408;10.004;2024-02-26T07:18:12;19.77;;;17.00;;
1178;SDS011;578;48.408;10.004;2024-02-26T07:20:13;19.47;;;16.60;;
1178;SDS011;578;48.408;10.004;2024-02-26T07:22:15;21.70;;;15.77;;
1178;SDS011;578;48.408;10.004;2024-02-26T07:24:17;20.85;;;16.70;;
1178;SDS011;578;48.408;10.004;2024-02-26T07:26:19;18.20;;;15.55;;
1178;SDS011;578;48.408;10.004;2024-02-26T07:28:20;21.55;;;17.35;;
1178;SDS011;578;48.408;10.004;2024-02-26T07:30:23;20.70;;;16.20;;
1178;SDS011;578;48.408;10.004;2024-02-26T07:32:25;19.67;;;16.33;;
1178;SDS011;578;48.408;10.004;2024-02-26T07:34:27;20.40;;;16.10;;
1178;SDS011;578;48.408;10.004;2024-02-26T07:36:29;21.77;;;16.42;;
1178;SDS011;578;48.408;10.004;2024-02-26T07:38:31;18.50;;;16.00;;
1178;SDS011;578;48.408;10.004;2024-02-26T07:40:32;23.98;;;19.60;;
1178;SDS011;578;48.408;10.004;2024-02-26T07:42:33;21.00;;;17.97;;
1178;SDS011;578;48.408;10.004;2024-02-26T07:44:36;22.90;;;20.08;;
1178;SDS011;578;48.408;10.004;2024-02-26T07:46:39;19.98;;;17.58;;
1178;SDS011;578;48.408;10.004;2024-02-26T07:48:41;19.42;;;16.45;;
1178;SDS011;578;48.408;10.004;2024-02-26T07:50:43;19.13;;;16.13;;
1178;SDS011;578;48.408;10.004;2024-02-26T07:52:44;17.20;;;14.88;;
1178;SDS011;578;48.408;10.004;2024-02-26T07:54:46;16.75;;;15.00;;
1178;SDS011;578;48.408;10.004;2024-02-26T07:56:48;18.98;;;16.02;;
1178;SDS011;578;48.408;10.004;2024-02-26T07:58:50;18.33;;;15.20;;
1178;SDS011;578;48.408;10.004;2024-02-26T08:00:51;18.80;;;16.67;;
1178;SDS011;578;48.408;10.004;2024-02-26T08:02:55;19.70;;;15.30;;
1178;SDS011;578;48.408;10.004;2024-02-26T08:04:56;18.00;;;15.82;;
1178;SDS011;578;48.408;10.004;2024-02-26T08:06:58;20.17;;;15.80;;
1178;SDS011;578;48.408;10.004;2024-02-26T08:09:00;15.75;;;14.02;;
1178;SDS011;578;48.408;10.004;2024-02-26T08:11:01;16.48;;;14.50;;
1178;SDS011;578;48.408;10.004;2024-02-26T08:13:03;21.70;;;15.73;;
1178;SDS011;578;48.408;10.004;2024-02-26T08:15:06;17.77;;;14.95;;
1178;SDS011;578;48.408;10.004;2024-02-26T08:17:08;19.52;;;15.75;;
1178;SDS011;578;48.408;10.004;2024-02-26T08:19:12;20.25;;;16.55;;
1178;SDS011;578;48.408;10.004;2024-02-26T08:21:15;17.20;;;15.18;;
1178;SDS011;578;48.408;10.004;2024-02-26T08:23:17;17.90;;;15.45;;
1178;SDS011;578;48.408;10.004;2024-02-26T08:25:18;17.48;;;15.45;;
1178;SDS011;578;48.408;10.004;2024-02-26T08:27:20;16.23;;;14.10;;
1178;SDS011;578;48.408;10.004;2024-02-26T08:29:22;18.40;;;15.07;;
1178;SDS011;578;48.408;10.004;2024-02-26T08:31:24;18.70;;;14.98;;
1178;SDS011;578;48.408;10.004;2024-02-26T08:33:25;19.98;;;17.88;;
1178;SDS011;578;48.408;10.004;2024-02-26T08:35:28;15.32;;;13.80;;
1178;SDS011;578;48.408;10.004;2024-02-26T08:37:30;16.88;;;15.05;;
1178;SDS011;578;48.408;10.004;2024-02-26T08:39:32;17.65;;;14.88;;
1178;SDS011;578;48.408;10.004;2024-02-26T08:41:33;17.27;;;15.52;;
1178;SDS011;578;48.408;10.004;2024-02-26T08:43:34;17.43;;;14.40;;
1178;SDS011;578;48.408;10.004;2024-02-26T08:45:36;17.88;;;15.02;;
1178;SDS011;578;48.408;10.004;2024-02-26T08:47:38;16.83;;;15.07;;
1178;SDS011;578;48.408;10.004;2024-02-26T08:49:42;16.98;;;15.02;;
1178;SDS011;578;48.408;10.004;2024-02-26T08:51:45;17.30;;;15.25;;
1178;SDS011;578;48.408;10.004;2024-02-26T08:53:47;15.82;;;13.68;;
1178;SDS011;578;48.408;10.004;2024-02-26T08:55:50;15.90;;;14.05;;
1178;SDS011;578;48.408;10.004;2024-02-26T08:57:51;15.25;;;13.23;;
1178;SDS011;578;48.408;10.004;2024-02-26T08:59:53;21.90;;;14.50;;
1178;SDS011;578;48.408;10.004;2024-02-26T09:01:54;23.27;;;14.27;;
1178;SDS011;578;48.408;10.004;2024-02-26T09:03:56;14.27;;;12.77;;
1178;SDS011;578;48.408;10.004;2024-02-26T09:05:58;15.65;;;14.05;;
1178;SDS011;578;48.408;10.004;2024-02-26T09:08:01;15.00;;;13.43;;
1178;SDS011;578;48.408;10.004;2024-02-26T09:10:04;15.10;;;12.45;;
1178;SDS011;578;48.408;10.004;2024-02-26T09:12:08;15.38;;;12.35;;
1178;SDS011;578;48.408;10.004;2024-02-26T09:14:10;13.93;;;12.52;;
1178;SDS011;578;48.408;10.004;2024-02-26T09:16:12;15.50;;;13.90;;
1178;SDS011;578;48.408;10.004;2024-02-26T09:18:14;16.38;;;13.57;;
1178;SDS011;578;48.408;10.004;2024-02-26T09:20:16;15.73;;;13.30;;
1178;SDS011;578;48.408;10.004;2024-02-26T09:22:20;16.40;;;13.63;;
1178;SDS011;578;48.408;10.004;2024-02-26T09:24:23;15.00;;;13.40;;
1178;SDS011;578;48.408;10.004;2024-02-26T09:26:25;16.17;;;12.48;;
1178;SDS011;578;48.408;10.004;2024-02-26T09:28:27;15.13;;;13.57;;
1178;SDS011;578;48.408;10.004;2024-02-26T09:30:31;13.40;;;12.10;;
1178;SDS011;578;48.408;10.004;2024-02-26T09:32:33;14.13;;;11.75;;
1178;SDS011;578;48.408;10.004;2024-02-26T09:34:35;12.95;;;11.60;;
1178;SDS011;578;48.408;10.004;2024-02-26T09:36:37;13.38;;;11.98;;
1178;SDS011;578;48.408;10.004;2024-02-26T09:38:38;12.60;;;11.30;;
1178;SDS011;578;48.408;10.004;2024-02-26T09:40:41;13.35;;;11.60;;
1178;SDS011;578;48.408;10.004;2024-02-26T09:42:44;12.10;;;10.80;;
1178;SDS011;578;48.408;10.004;2024-02-26T09:44:46;13.23;;;11.80;;
1178;SDS011;578;48.408;10.004;2024-02-26T09:46:52;13.50;;;12.07;;
1178;SDS011;578;48.408;10.004;2024-02-26T09:48:54;14.13;;;12.73;;
1178;SDS011;578;48.408;10.004;2024-02-26T09:50:56;12.05;;;10.80;;
1178;SDS011;578;48.408;10.004;2024-02-26T09:52:57;14.20;;;11.07;;
1178;SDS011;578;48.408;10.004;2024-02-26T09:55:02;12.75;;;11.50;;
1178;SDS011;578;48.408;10.004;2024-02-26T09:57:05;12.82;;;11.52;;
1178;SDS011;578;48.408;10.004;2024-02-26T09:59:15;12.23;;;9.98;;
1178;SDS011;578;48.408;10.004;2024-02-26T10:01:18;12.85;;;10.40;;
1178;SDS011;578;48.408;10.004;2024-02-26T10:03:21;11.20;;;10.10;;
1178;SDS011;578;48.408;10.004;2024-02-26T10:05:26;12.20;;;10.32;;
1178;SDS011;578;48.408;10.004;2024-02-26T10:07:30;10.70;;;9.55;;
1178;SDS011;578;48.408;10.004;2024-02-26T10:09:31;12.30;;;10.20;;
1178;SDS011;578;48.408;10.004;2024-02-26T10:11:33;11.47;;;10.30;;
1178;SDS011;578;48.408;10.004;2024-02-26T10:13:38;12.20;;;9.97;;
1178;SDS011;578;48.408;10.004;2024-02-26T10:15:39;12.83;;;11.53;;
1178;SDS011;578;48.408;10.004;2024-02-26T10:17:41;12.20;;;11.00;;
1178;SDS011;578;48.408;10.004;2024-02-26T10:19:44;11.00;;;10.00;;
1178;SDS011;578;48.408;10.004;2024-02-26T10:21:45;10.30;;;9.23;;
1178;SDS011;578;48.408;10.004;2024-02-26T10:23:48;9.33;;;8.33;;
1178;SDS011;578;48.408;10.004;2024-02-26T10:25:52;10.33;;;9.10;;
1178;SDS011;578;48.408;10.004;2024-02-26T10:27:53;10.30;;;9.27;;
1178;SDS011;578;48.408;10.004;2024-02-26T10:29:57;10.97;;;9.70;;
1178;SDS011;578;48.408;10.004;2024-02-26T10:31:59;11.67;;;10.47;;
1178;SDS011;578;48.408;10.004;2024-02-26T10:34:02;11.67;;;10.47;;
1178;SDS011;578;48.408;10.004;2024-02-26T10:36:05;13.40;;;10.60;;
1178;SDS011;578;48.408;10.004;2024-02-26T10:38:06;12.97;;;11.77;;
1178;SDS011;578;48.408;10.004;2024-02-26T10:40:09;13.93;;;10.90;;
1178;SDS011;578;48.408;10.004;2024-02-26T10:42:12;12.17;;;10.43;;
1178;SDS011;578;48.408;10.004;2024-02-26T10:44:15;12.90;;;11.63;;
1178;SDS011;578;48.408;10.004;2024-02-26T10:46:18;11.70;;;10.60;;
1178;SDS011;578;48.408;10.004;2024-02-26T10:48:20;11.87;;;10.67;;
1178;SDS011;578;48.408;10.004;2024-02-26T10:50:22;11.37;;;9.60;;
1178;SDS011;578;48.408;10.004;2024-02-26T10:52:24;11.40;;;10.30;;
1178;SDS011;578;48.408;10.004;2024-02-26T10:54:29;11.57;;;10.40;;
1178;SDS011;578;48.408;10.004;2024-02-26T10:56:33;12.27;;;11.05;;
1178;SDS011;578;48.408;10.004;2024-02-26T10:58:37;10.77;;;9.67;;
1178;SDS011;578;48.408;10.004;2024-02-26T11:00:40;10.53;;;9.57;;
1178;SDS011;578;48.408;10.004;2024-02-26T11:02:44;11.70;;;9.30;;
1178;SDS011;578;48.408;10.004;2024-02-26T11:04:46;11.63;;;9.00;;
1178;SDS011;578;48.408;10.004;2024-02-26T11:06:50;10.17;;;9.10;;
1178;SDS011;578;48.408;10.004;2024-02-26T11:08:52;9.83;;;8.93;;
1178;SDS011;578;48.408;10.004;2024-02-26T11:10:55;10.03;;;9.03;;
1178;SDS011;578;48.408;10.004;2024-02-26T11:12:57;10.63;;;9.07;;
1178;SDS011;578;48.408;10.004;2024-02-26T11:15:02;12.17;;;8.93;;
1178;SDS011;578;48.408;10.004;2024-02-26T11:17:05;10.30;;;9.30;;
1178;SDS011;578;48.408;10.004;2024-02-26T11:19:10;9.47;;;8.63;;
1178;SDS011;578;48.408;10.004;2024-02-26T11:21:14;10.80;;;9.70;;
1178;SDS011;578;48.408;10.004;2024-02-26T11:23:17;10.80;;;9.70;;
1178;SDS011;578;48.408;10.004;2024-02-26T11:25:19;13.10;;;9.93;;
1178;SDS011;578;48.408;10.004;2024-02-26T11:27:21;9.77;;;8.87;;
1178;SDS011;578;48.408;10.004;2024-02-26T11:29:32;9.87;;;8.97;;
1178;SDS011;578;48.408;10.004;2024-02-26T11:31:38;11.77;;;9.63;;
1178;SDS011;578;48.408;10.004;2024-02-26T11:33:41;13.17;;;9.73;;
1178;SDS011;578;48.408;10.004;2024-02-26T11:35:44;11.53;;;10.43;;
1178;SDS011;578;48.408;10.004;2024-02-26T11:37:53;10.30;;;9.30;;
1178;SDS011;578;48.408;10.004;2024-02-26T11:39:56;11.23;;;10.13;;
1178;SDS011;578;48.408;10.004;2024-02-26T11:42:04;10.40;;;9.40;;
1178;SDS011;578;48.408;10.004;2024-02-26T11:44:07;12.27;;;9.70;;
1178;SDS011;578;48.408;10.004;2024-02-26T11:46:23;10.87;;;9.83;;
1178;SDS011;578;48.408;10.004;2024-02-26T11:48:26;11.93;;;10.67;;
1178;SDS011;578;48.408;10.004;2024-02-26T11:50:33;13.57;;;10.60;;
1178;SDS011;578;48.408;10.004;2024-02-26T11:52:37;11.90;;;10.63;;
1178;SDS011;578;48.408;10.004;2024-02-26T11:54:39;11.73;;;10.13;;
1178;SDS011;578;48.408;10.004;2024-02-26T11:56:45;11.50;;;10.40;;
1178;SDS011;578;48.408;10.004;2024-02-26T11:58:47;10.87;;;9.77;;
1178;SDS011;578;48.408;10.004;2024-02-26T12:00:49;11.53;;;9.50;;
1178;SDS011;578;48.408;10.004;2024-02-26T12:02:56;14.13;;;10.17;;
1178;SDS011;578;48.408;10.004;2024-02-26T12:05:01;11.37;;;10.30;;
1178;SDS011;578;48.408;10.004;2024-02-26T12:07:03;13.33;;;10.70;;
1178;SDS011;578;48.408;10.004;2024-02-26T12:09:06;11.30;;;10.10;;
1178;SDS011;578;48.408;10.004;2024-02-26T12:11:14;12.30;;;10.57;;
1178;SDS011;578;48.408;10.004;2024-02-26T12:13:16;12.20;;;10.67;;
1178;SDS011;578;48.408;10.004;2024-02-26T12:15:22;11.30;;;10.20;;
1178;SDS011;578;48.408;10.004;2024-02-26T12:17:25;10.93;;;9.90;;
1178;SDS011;578;48.408;10.004;2024-02-26T12:19:27;11.33;;;9.77;;
1178;SDS011;578;48.408;10.004;2024-02-26T12:21:29;10.60;;;9.50;;
1178;SDS011;578;48.408;10.004;2024-02-26T12:23:31;11.73;;;10.53;;